Huvudsida
METAR-TAF:

METAR-TAF

Flygplatser :

Mariehamns flygplats

Mariehamn, Finland

latitud: 60-07N, longitud: 019-54E, höjd: 6 m

Aktuellt väderrapport

Denna rapport gjordes för 33 minuter sedan, klockan 12:20 UTC
Vind 13 kt från syd, varierande mellan syd/sydost och sydväst
Temperatur 19°C
Fuktighet 68%
Tryck 1013 hPa
Sikt 10 km eller mer
Inga moln under 1 500 m eller inga cumulonimbus

METAR: EFMA 181220Z AUTO 18013KT 160V230 CAVOK 19/13 Q1013

Tid: 15:53 (12:53 UTC)

Väderprognos

Denna rapport gjordes för 1 timme och 25 minuter sedan, klockan 11:28 UTC
Prognos gäller från 18 kl. 12 UTC till 18 kl. 21 UTC
Vind 13 kt från syd
Sikt 10 km eller mer
Inga moln under 1 500 m eller inga cumulonimbus
Blir
från 18 kl. 15 UTC till 18 kl. 17 UTC
Vind 15 kt från syd/sydväst i byarna ända upp till 27 kt

TAF: EFMA 181128Z 1812/1821 19013KT CAVOK BECMG 1815/1817 20015G27KT

Aktuella väderrapporter och prognoser från 4000 flygplatser (METAR- och TAF-rapporter).

De tillgängliga stationerna syns som gula och röda prickar på kartan.

För musen över prickarna för att se namnen på stationerna.

Klicka sedan för att få väderrapporter och prognoser.

För att ändra kartan: Klicka på de gröna knapparna med ett svart kors på för att zooma in; den gröna knappen med ett streck på för att zooma ut; eller på de gröna pilarna för angränsande kartor.


METAR-TAF: